Sandovalina, Brazil
Current Conditions -  °F | °C
As of 5:00 PM on Thursday 23 Oct 2014 (Local Time) from SBDN Reporting Station
Clear Clear  
Wind Chill: 91°   Ceiling: Unl
Heat Index: 91°   Visibility: 6mi
Dew Point: 59°   Wind: 6mph
Humidity: 34%   Direction: 310°NW
Pressure: 29.88"   Gusts: NA
Location:  22.46°S, 51.76°W
Report Text: SBDN 231900Z 31005KT CAVOK 33/15 Q1012
Loading
Personal Weather Stations






























Interactive Weather Map
Tropical Storm Tracking
New forecast layout! Learn more

10-Day Weather Forecast

Advertisements
Track Severe Weather on mobile